Time;durP1;ratioP1;P1;durP2;ratioP2;P2;SDS_P1;SDS_P2;PMS_P1;PMS_P2;Temp;Humidity;BMP_temperature;BMP_pressure;BME280_temperature;BME280_humidity;BME280_pressure;Samples;Min_cycle;Max_cycle;Signal;HPM_P1;HPM_P2
2022/01/29 00:00:12;;;;;;;2.83;1.60;;;1.60;66.50;;;;;;6260141;28;20255;-58
2022/01/29 00:03:13;;;;;;;5.17;2.23;;;1.60;66.40;;;;;;6222218;28;20213;-58
2022/01/29 00:06:14;;;;;;;3.03;1.70;;;1.40;67.00;;;;;;6219375;28;20226;-58
2022/01/29 00:09:15;;;;;;;2.60;1.60;;;1.40;67.00;;;;;;6218902;28;20236;-59
2022/01/29 00:12:17;;;;;;;2.77;1.80;;;1.30;67.30;;;;;;6218875;28;20237;-59
2022/01/29 00:15:17;;;;;;;1.37;1.07;;;1.30;67.40;;;;;;6257060;28;20203;-59
2022/01/29 00:18:18;;;;;;;2.37;1.33;;;1.20;67.30;;;;;;6243670;28;20196;-59
2022/01/29 00:21:19;;;;;;;1.13;0.90;;;1.10;67.30;;;;;;6251893;28;20219;-59
2022/01/29 00:24:20;;;;;;;1.63;1.10;;;1.00;67.70;;;;;;6218848;28;20224;-59
2022/01/29 00:27:22;;;;;;;3.80;1.47;;;0.90;68.10;;;;;;6232999;28;20189;-59
2022/01/29 00:30:30;;;;;;;2.83;1.47;;;0.80;68.40;;;;;;6243273;28;20238;-59
2022/01/29 00:33:31;;;;;;;2.47;1.20;;;0.80;68.60;;;;;;6243105;28;20186;-59
2022/01/29 00:36:32;;;;;;;1.20;0.93;;;0.70;69.20;;;;;;6242060;28;20243;-59
2022/01/29 00:39:33;;;;;;;2.97;1.20;;;0.60;69.50;;;;;;6242628;28;20191;-58
2022/01/29 00:42:34;;;;;;;3.47;1.77;;;0.50;69.80;;;;;;6259179;28;20240;-58
2022/01/29 00:45:34;;;;;;;2.67;1.50;;;0.50;69.90;;;;;;6242365;28;20244;-58
2022/01/29 00:48:35;;;;;;;2.67;1.73;;;0.50;69.80;;;;;;6238655;28;20217;-58
2022/01/29 00:51:36;;;;;;;2.93;1.67;;;0.50;69.80;;;;;;6245904;28;20190;-58
2022/01/29 00:54:38;;;;;;;5.30;1.87;;;0.50;69.50;;;;;;6234030;28;20201;-59
2022/01/29 00:57:40;;;;;;;1.93;1.37;;;0.50;69.80;;;;;;6250829;28;20259;-58
2022/01/29 01:00:41;;;;;;;3.27;2.00;;;0.50;69.70;;;;;;6229033;28;20197;-58
2022/01/29 01:03:42;;;;;;;1.67;1.20;;;0.50;69.80;;;;;;6241925;28;20192;-59
2022/01/29 01:06:42;;;;;;;3.40;1.47;;;0.60;69.60;;;;;;6221195;28;20185;-57
2022/01/29 01:09:43;;;;;;;3.50;1.60;;;0.60;69.40;;;;;;6250290;28;20182;-58
2022/01/29 01:12:44;;;;;;;2.63;1.70;;;0.60;69.50;;;;;;6233939;28;20223;-57
2022/01/29 01:15:45;;;;;;;2.00;1.47;;;0.50;69.80;;;;;;6217295;28;20197;-56
2022/01/29 01:18:45;;;;;;;3.57;1.97;;;0.50;69.60;;;;;;6233323;28;20290;-58
2022/01/29 01:21:46;;;;;;;2.00;1.30;;;0.40;69.80;;;;;;6257927;28;20242;-58
2022/01/29 01:24:47;;;;;;;4.47;1.70;;;0.30;70.30;;;;;;6258056;28;20220;-58
2022/01/29 01:27:48;;;;;;;5.60;2.90;;;0.30;70.30;;;;;;6258206;28;20178;-58
2022/01/29 01:30:50;;;;;;;4.53;2.53;;;0.30;70.70;;;;;;6274646;28;20224;-58
2022/01/29 01:33:51;;;;;;;3.77;1.63;;;0.20;70.80;;;;;;6241705;28;20190;-59
2022/01/29 01:36:57;;;;;;;2.57;1.87;;;0.20;70.90;;;;;;6235301;28;20205;-58
2022/01/29 01:39:58;;;;;;;4.07;1.20;;;0.10;70.80;;;;;;6233675;28;20183;-58
2022/01/29 01:43:00;;;;;;;1.63;1.00;;;0.10;71.20;;;;;;6233041;28;20262;-58
2022/01/29 01:46:01;;;;;;;3.00;1.40;;;0.10;71.10;;;;;;6249727;28;20233;-58
2022/01/29 01:49:03;;;;;;;2.90;1.30;;;0.10;71.10;;;;;;6241738;28;20177;-59
2022/01/29 01:52:06;;;;;;;3.47;1.20;;;0.10;71.00;;;;;;6257909;28;20182;-59
2022/01/29 01:55:07;;;;;;;1.43;1.00;;;0.10;71.10;;;;;;6257197;28;20203;-59
2022/01/29 01:58:08;;;;;;;1.27;0.90;;;0.00;71.20;;;;;;6257380;28;20193;-59
2022/01/29 02:01:09;;;;;;;1.80;1.00;;;0.00;71.20;;;;;;6256992;28;20216;-58
2022/01/29 02:04:09;;;;;;;2.57;1.20;;;0.00;71.20;;;;;;6257116;28;20210;-59
2022/01/29 02:07:10;;;;;;;2.93;2.50;;;0.10;71.00;;;;;;6247557;28;20182;-59
2022/01/29 02:10:12;;;;;;;4.97;1.37;;;0.00;71.30;;;;;;6244638;28;20272;-59
2022/01/29 02:13:13;;;;;;;2.83;1.00;;;0.00;71.30;;;;;;6236899;28;20198;-59
2022/01/29 02:16:14;;;;;;;3.10;1.00;;;0.00;71.40;;;;;;6237581;28;20275;-58
2022/01/29 02:19:15;;;;;;;2.40;1.10;;;0.00;71.30;;;;;;6258339;28;20191;-58
2022/01/29 02:22:16;;;;;;;1.10;1.00;;;0.20;71.00;;;;;;6238970;28;20191;-58
2022/01/29 02:25:43;;;;;;;3.13;1.00;;;0.20;70.80;;;;;;6259629;28;20219;-58
2022/01/29 02:28:44;;;;;;;1.43;1.17;;;0.10;70.80;;;;;;6231401;28;20234;-59
2022/01/29 02:31:54;;;;;;;1.73;1.10;;;0.00;71.00;;;;;;6234767;28;20292;-59
2022/01/29 02:34:55;;;;;;;1.47;1.00;;;0.00;70.80;;;;;;6264648;28;20191;-59
2022/01/29 02:37:56;;;;;;;1.37;0.90;;;0.00;71.10;;;;;;6227698;28;20232;-59
2022/01/29 02:41:01;;;;;;;0.97;0.93;;;0.00;71.40;;;;;;6239451;28;20198;-58
2022/01/29 02:44:05;;;;;;;1.07;0.90;;;0.00;71.10;;;;;;6235751;28;20235;-57
2022/01/29 02:47:25;;;;;;;1.77;1.03;;;-3276.70;71.30;;;;;;6255064;28;20196;-56
2022/01/29 02:50:26;;;;;;;2.77;0.90;;;-3276.70;71.40;;;;;;6228452;28;20195;-57
2022/01/29 02:53:28;;;;;;;1.10;0.70;;;-3276.70;71.30;;;;;;6246745;28;20219;-57
2022/01/29 02:56:29;;;;;;;1.10;0.80;;;-3276.70;71.20;;;;;;6213302;28;20190;-59
2022/01/29 02:59:30;;;;;;;1.23;1.10;;;-3276.70;70.90;;;;;;6215531;28;20201;-60
2022/01/29 03:02:30;;;;;;;1.93;1.00;;;-3276.70;70.60;;;;;;6235427;28;20186;-59
2022/01/29 03:05:31;;;;;;;3.57;1.30;;;0.00;69.90;;;;;;6264475;28;20221;-60
2022/01/29 03:08:32;;;;;;;2.03;1.30;;;0.00;70.00;;;;;;6248209;28;20183;-59
2022/01/29 03:11:33;;;;;;;1.80;1.07;;;0.00;69.90;;;;;;6248639;28;20183;-59
2022/01/29 03:14:34;;;;;;;1.53;0.90;;;0.00;69.70;;;;;;6229447;28;20213;-59
2022/01/29 03:17:35;;;;;;;1.87;1.20;;;0.00;69.60;;;;;;6218998;28;20212;-58
2022/01/29 03:20:36;;;;;;;1.73;1.03;;;0.00;69.50;;;;;;6264846;28;20196;-58
2022/01/29 03:23:37;;;;;;;2.37;1.30;;;0.00;69.50;;;;;;6280100;28;20187;-58
2022/01/29 03:26:37;;;;;;;0.90;0.70;;;0.00;69.50;;;;;;6207472;28;20254;-56
2022/01/29 03:29:38;;;;;;;1.17;0.83;;;0.00;69.30;;;;;;6239937;28;20239;-58
2022/01/29 03:32:39;;;;;;;2.80;1.03;;;-3276.70;69.20;;;;;;6241809;28;20195;-58
2022/01/29 03:35:40;;;;;;;2.33;1.13;;;0.00;69.20;;;;;;6228399;28;20237;-59
2022/01/29 03:38:41;;;;;;;1.73;1.27;;;0.00;69.40;;;;;;6242728;28;20190;-57
2022/01/29 03:41:41;;;;;;;2.87;1.23;;;-3276.70;69.60;;;;;;6239775;28;20249;-57
2022/01/29 03:44:43;;;;;;;1.73;1.10;;;-3276.70;69.70;;;;;;6230839;28;20252;-57
2022/01/29 03:47:43;;;;;;;3.33;1.63;;;-3276.70;69.80;;;;;;6196038;28;20198;-56
2022/01/29 03:50:44;;;;;;;1.93;1.03;;;-3276.70;69.50;;;;;;6211449;28;20205;-57
2022/01/29 03:53:46;;;;;;;3.17;1.70;;;-3276.60;70.00;;;;;;6245892;28;20194;-57
2022/01/29 03:56:47;;;;;;;2.37;1.23;;;-3276.50;70.30;;;;;;6252512;28;20186;-57
2022/01/29 03:59:47;;;;;;;2.30;1.10;;;-3276.40;70.80;;;;;;6235867;28;20201;-57
2022/01/29 04:02:48;;;;;;;2.67;1.60;;;-3276.40;70.80;;;;;;6235974;28;20176;-56
2022/01/29 04:05:49;;;;;;;2.93;0.93;;;-3276.40;70.70;;;;;;6215947;28;20228;-57
2022/01/29 04:08:50;;;;;;;2.70;1.30;;;-3276.40;70.60;;;;;;6221233;28;20205;-58
2022/01/29 04:11:51;;;;;;;1.80;1.10;;;-3276.40;70.60;;;;;;6227337;28;20191;-59
2022/01/29 04:14:53;;;;;;;1.33;0.87;;;-3276.40;70.70;;;;;;6223603;28;20191;-59
2022/01/29 04:17:54;;;;;;;2.33;1.20;;;-3276.40;70.60;;;;;;6219215;28;20222;-58
2022/01/29 04:20:55;;;;;;;1.33;0.90;;;-3276.30;70.90;;;;;;6242720;28;20201;-61
2022/01/29 04:23:56;;;;;;;3.13;1.47;;;-3276.20;71.00;;;;;;6248554;28;20199;-59
2022/01/29 04:26:57;;;;;;;1.93;1.00;;;-3276.20;71.00;;;;;;6234372;28;20290;-58
2022/01/29 04:30:00;;;;;;;3.27;1.20;;;-3276.20;71.20;;;;;;6248390;28;20249;-59
2022/01/29 04:33:04;;;;;;;1.90;1.20;;;-3276.20;71.20;;;;;;6248879;28;20226;-58
2022/01/29 04:36:06;;;;;;;1.80;1.03;;;-3276.20;71.20;;;;;;6238023;28;20301;-58
2022/01/29 04:39:07;;;;;;;1.50;1.40;;;-3276.20;71.20;;;;;;6226464;28;20196;-58
2022/01/29 04:42:08;;;;;;;2.17;1.33;;;-3276.10;71.30;;;;;;6204611;28;20190;-59
2022/01/29 04:45:09;;;;;;;2.33;1.30;;;-3276.10;71.40;;;;;;6248154;28;20340;-58
2022/01/29 04:48:10;;;;;;;3.10;1.37;;;-3276.20;71.30;;;;;;6259161;28;20353;-59
2022/01/29 04:51:11;;;;;;;3.27;1.40;;;-3276.20;71.10;;;;;;6220177;28;20190;-58
2022/01/29 04:54:12;;;;;;;2.93;1.50;;;-3276.10;71.10;;;;;;6204314;28;20195;-58
2022/01/29 04:57:12;;;;;;;1.90;1.17;;;-3276.00;71.20;;;;;;6199347;28;20264;-58
2022/01/29 05:00:19;;;;;;;1.67;1.20;;;-3276.00;71.20;;;;;;6237332;28;20221;-59
2022/01/29 05:03:20;;;;;;;2.63;1.40;;;-3276.00;71.40;;;;;;6244999;28;20218;-59
2022/01/29 05:06:21;;;;;;;4.43;1.40;;;-3276.00;71.50;;;;;;6256838;28;20223;-58
2022/01/29 05:09:22;;;;;;;1.50;1.40;;;-3275.90;71.70;;;;;;6209176;28;20251;-58
2022/01/29 05:12:29;;;;;;;1.63;1.00;;;-3276.00;72.00;;;;;;6222350;28;20311;-58
2022/01/29 05:29:01;;;;;;;4.27;1.40;;;-3275.80;72.40;;;;;;6225692;28;20180;-58
2022/01/29 05:32:05;;;;;;;5.43;1.40;;;-3275.80;72.30;;;;;;6240033;28;20186;-58
2022/01/29 05:35:06;;;;;;;1.93;1.03;;;-3275.80;72.20;;;;;;6250308;28;20190;-56
2022/01/29 05:38:07;;;;;;;2.50;1.10;;;-3275.80;72.20;;;;;;6254800;28;20549;-58
2022/01/29 05:41:08;;;;;;;2.43;1.20;;;-3275.70;72.50;;;;;;6208547;28;20194;-59
2022/01/29 05:44:09;;;;;;;2.33;1.37;;;-3275.70;72.90;;;;;;6232875;28;20245;-58
2022/01/29 05:47:09;;;;;;;2.47;1.50;;;-3275.70;72.80;;;;;;6218597;28;20241;-58
2022/01/29 05:50:10;;;;;;;1.27;1.13;;;-3275.70;72.80;;;;;;6213002;28;20196;-59
2022/01/29 05:53:11;;;;;;;5.60;2.10;;;-3275.70;72.70;;;;;;6238811;28;20193;-58
2022/01/29 05:56:12;;;;;;;2.13;1.30;;;-3275.60;72.90;;;;;;6265084;28;20190;-58
2022/01/29 05:59:13;;;;;;;1.83;1.43;;;-3275.60;73.00;;;;;;6225502;28;20220;-58
2022/01/29 06:02:14;;;;;;;1.57;1.40;;;-3275.60;73.10;;;;;;6242044;28;20191;-58
2022/01/29 06:05:15;;;;;;;2.20;1.40;;;-3275.60;72.90;;;;;;6236544;28;20258;-58
2022/01/29 06:08:16;;;;;;;3.63;1.70;;;-3275.60;73.00;;;;;;6238386;28;20198;-59
2022/01/29 06:11:17;;;;;;;3.17;2.03;;;-3275.70;72.80;;;;;;6217923;28;20283;-55
2022/01/29 06:14:18;;;;;;;3.27;1.87;;;-3275.60;73.10;;;;;;6192602;28;20197;-58
2022/01/29 06:17:18;;;;;;;2.10;1.67;;;-3275.60;73.40;;;;;;6192764;28;20288;-58
2022/01/29 06:20:19;;;;;;;1.60;1.10;;;-3275.70;73.20;;;;;;6244857;28;20298;-56
2022/01/29 06:23:28;;;;;;;2.30;2.10;;;-3275.70;72.80;;;;;;6249264;28;20282;-58
2022/01/29 06:26:29;;;;;;;3.63;2.20;;;-3275.70;73.00;;;;;;6249437;28;20297;-57
2022/01/29 06:29:29;;;;;;;2.37;1.77;;;-3275.70;72.80;;;;;;6231980;28;20189;-58
2022/01/29 06:32:30;;;;;;;5.07;2.20;;;-3275.70;72.70;;;;;;6216377;28;20207;-54
2022/01/29 06:35:31;;;;;;;2.43;1.53;;;-3275.70;72.70;;;;;;6248926;28;20223;-53
2022/01/29 06:38:32;;;;;;;1.87;1.20;;;-3275.70;72.80;;;;;;6243288;28;20192;-54
2022/01/29 06:41:33;;;;;;;4.00;2.10;;;-3275.60;73.20;;;;;;6213244;28;20194;-54
2022/01/29 06:44:33;;;;;;;3.67;1.90;;;-3275.50;73.40;;;;;;6226036;28;20243;-54
2022/01/29 06:47:34;;;;;;;3.67;2.50;;;-3275.50;73.40;;;;;;6226221;28;20221;-55
2022/01/29 06:50:36;;;;;;;2.37;1.87;;;-3275.50;73.50;;;;;;6231150;28;20195;-55
2022/01/29 06:53:37;;;;;;;2.30;1.77;;;-3275.60;73.70;;;;;;6254041;28;20189;-56
2022/01/29 06:56:37;;;;;;;1.83;1.57;;;-3275.60;73.70;;;;;;6256850;28;20202;-55
2022/01/29 06:59:38;;;;;;;2.00;1.47;;;-3275.60;73.50;;;;;;6215648;28;20190;-57
2022/01/29 07:02:39;;;;;;;3.53;2.00;;;-3275.60;73.40;;;;;;6248146;28;20268;-53
2022/01/29 07:05:40;;;;;;;2.50;1.70;;;-3275.70;73.30;;;;;;6264904;28;20222;-56
2022/01/29 07:08:41;;;;;;;2.63;1.90;;;-3275.70;73.30;;;;;;6215239;28;20240;-56
2022/01/29 07:11:43;;;;;;;2.80;1.83;;;-3275.70;73.10;;;;;;6226409;28;20250;-56
2022/01/29 07:14:44;;;;;;;1.87;1.73;;;-3275.70;73.30;;;;;;6216165;28;20191;-54
2022/01/29 07:17:45;;;;;;;3.03;2.03;;;-3275.70;73.20;;;;;;6210774;28;20202;-56
2022/01/29 07:20:47;;;;;;;3.10;1.90;;;-3275.80;73.00;;;;;;6248484;28;20201;-58
2022/01/29 07:23:48;;;;;;;2.93;1.93;;;-3275.80;73.20;;;;;;6229598;28;20236;-57
2022/01/29 07:26:49;;;;;;;2.33;1.80;;;-3275.80;73.40;;;;;;6234482;28;20214;-62
2022/01/29 07:29:50;;;;;;;5.47;1.90;;;-3275.90;73.20;;;;;;6224456;28;20212;-62
2022/01/29 07:32:51;;;;;;;5.43;2.03;;;-3275.90;73.40;;;;;;6248952;28;20237;-63
2022/01/29 07:35:51;;;;;;;3.20;1.97;;;-3275.90;73.60;;;;;;6221068;28;20190;-59
2022/01/29 07:38:52;;;;;;;1.83;1.50;;;-3276.00;73.40;;;;;;6258364;28;20195;-59
2022/01/29 07:41:53;;;;;;;3.00;2.20;;;-3275.90;73.50;;;;;;6233999;28;20201;-59
2022/01/29 07:44:54;;;;;;;7.60;2.83;;;-3276.00;73.50;;;;;;6238319;28;20341;-59
2022/01/29 07:47:55;;;;;;;3.13;2.50;;;-3275.80;73.60;;;;;;6227725;28;20192;-61
2022/01/29 07:50:56;;;;;;;7.97;2.80;;;-3275.90;73.60;;;;;;6218597;28;20212;-62
2022/01/29 07:53:57;;;;;;;3.23;2.13;;;-3275.90;73.70;;;;;;6235900;28;20185;-62
2022/01/29 07:56:57;;;;;;;3.80;3.13;;;-3276.10;73.60;;;;;;6235989;28;20212;-60
2022/01/29 07:59:58;;;;;;;5.20;2.90;;;-3276.20;73.50;;;;;;6244204;28;20215;-62
2022/01/29 08:02:59;;;;;;;3.30;2.37;;;-3276.20;73.40;;;;;;6227514;28;20191;-60
2022/01/29 08:06:00;;;;;;;4.90;3.03;;;-3276.40;73.30;;;;;;6275731;28;20202;-60
2022/01/29 08:09:01;;;;;;;5.10;3.27;;;-3276.40;73.30;;;;;;6235409;28;20182;-60
2022/01/29 08:12:02;;;;;;;6.13;3.17;;;-3276.50;73.50;;;;;;6219219;28;20188;-58
2022/01/29 08:15:04;;;;;;;6.20;3.93;;;-3276.70;73.40;;;;;;6260895;28;20202;-60
2022/01/29 08:18:05;;;;;;;6.13;4.17;;;0.00;73.60;;;;;;6230515;28;20196;-60
2022/01/29 08:21:06;;;;;;;5.00;4.33;;;0.10;73.10;;;;;;6268018;28;20225;-60
2022/01/29 08:24:07;;;;;;;6.30;4.33;;;0.30;72.00;;;;;;6218929;28;20195;-60
2022/01/29 08:27:08;;;;;;;7.10;4.13;;;0.30;71.60;;;;;;6232785;28;20197;-60
2022/01/29 08:30:09;;;;;;;6.33;3.93;;;0.60;70.60;;;;;;6245330;28;20221;-61
2022/01/29 08:33:16;;;;;;;3.93;2.70;;;0.90;69.50;;;;;;6234740;28;20186;-61
2022/01/29 08:36:17;;;;;;;4.90;3.30;;;1.10;68.00;;;;;;6250648;28;20184;-61
2022/01/29 08:39:18;;;;;;;3.73;2.47;;;1.30;67.90;;;;;;6229916;28;20257;-60
2022/01/29 08:42:19;;;;;;;2.70;2.30;;;1.50;67.50;;;;;;6232732;28;20198;-59
2022/01/29 08:45:20;;;;;;;6.23;2.67;;;1.60;67.20;;;;;;6234013;28;20284;-60
2022/01/29 08:48:22;;;;;;;4.43;2.63;;;1.80;67.20;;;;;;6261454;28;20179;-60
2022/01/29 08:51:23;;;;;;;4.00;3.10;;;1.90;66.40;;;;;;6261222;28;20186;-60
2022/01/29 08:54:23;;;;;;;2.90;2.40;;;2.00;65.80;;;;;;6229298;28;20198;-61
2022/01/29 08:57:24;;;;;;;4.20;2.60;;;2.10;65.70;;;;;;6236516;28;20193;-60
2022/01/29 09:00:25;;;;;;;3.23;2.30;;;2.20;65.20;;;;;;6258537;28;20350;-61
2022/01/29 09:03:26;;;;;;;3.07;2.27;;;2.30;65.20;;;;;;6249814;28;20206;-61
2022/01/29 09:06:27;;;;;;;3.53;2.50;;;2.40;64.90;;;;;;6232156;28;20211;-62
2022/01/29 09:09:28;;;;;;;3.67;3.17;;;2.60;64.80;;;;;;6257853;28;20196;-61
2022/01/29 09:12:30;;;;;;;3.60;2.50;;;2.50;64.40;;;;;;6264907;28;20482;-60
2022/01/29 09:15:31;;;;;;;3.23;2.70;;;2.60;64.40;;;;;;6255045;28;20194;-61
2022/01/29 09:18:31;;;;;;;6.13;2.53;;;2.60;64.10;;;;;;6241574;28;20190;-60
2022/01/29 09:21:32;;;;;;;3.70;2.43;;;2.70;64.40;;;;;;6254932;28;20200;-61
2022/01/29 09:24:33;;;;;;;4.27;2.83;;;2.70;63.10;;;;;;6258266;28;20240;-60
2022/01/29 09:27:34;;;;;;;4.57;2.40;;;2.90;62.40;;;;;;6253525;28;20221;-60
2022/01/29 09:30:35;;;;;;;4.97;2.67;;;3.00;62.30;;;;;;6257339;28;20185;-61
2022/01/29 09:33:36;;;;;;;4.63;2.40;;;2.90;62.20;;;;;;6233750;28;20202;-60
2022/01/29 09:36:37;;;;;;;6.93;3.17;;;3.00;61.20;;;;;;6234137;28;20216;-61
2022/01/29 09:39:38;;;;;;;5.40;2.80;;;3.00;61.50;;;;;;6274326;28;20212;-60
2022/01/29 09:42:40;;;;;;;5.03;3.07;;;2.80;62.00;;;;;;6241002;28;20304;-61
2022/01/29 09:45:43;;;;;;;6.97;3.80;;;2.80;62.30;;;;;;6284232;28;20210;-61
2022/01/29 09:48:45;;;;;;;4.90;3.10;;;2.70;62.40;;;;;;6241255;28;20213;-61
2022/01/29 09:51:46;;;;;;;7.67;3.37;;;2.80;62.80;;;;;;6254176;28;20197;-61
2022/01/29 09:54:48;;;;;;;4.70;3.13;;;2.90;62.60;;;;;;6257316;28;20231;-61
2022/01/29 09:57:49;;;;;;;6.93;3.27;;;2.90;62.50;;;;;;6236711;28;20208;-61
2022/01/29 10:00:50;;;;;;;8.30;3.80;;;3.00;62.50;;;;;;6232525;28;20185;-61
2022/01/29 10:04:03;;;;;;;3.57;2.60;;;3.10;61.70;;;;;;6216253;28;20207;-61
2022/01/29 10:07:16;;;;;;;6.47;3.00;;;3.10;61.60;;;;;;6253777;28;20193;-61
2022/01/29 10:10:19;;;;;;;4.53;3.13;;;3.10;61.10;;;;;;6240840;28;20276;-61
2022/01/29 10:13:36;;;;;;;6.43;3.10;;;3.10;61.00;;;;;;6240971;28;20273;-61
2022/01/29 10:16:41;;;;;;;8.20;2.80;;;3.00;61.70;;;;;;6249090;28;20206;-58
2022/01/29 10:19:42;;;;;;;5.50;3.17;;;3.00;61.80;;;;;;6227304;28;20261;-60
2022/01/29 10:22:52;;;;;;;4.77;2.57;;;3.10;61.70;;;;;;6248984;28;20190;-62
2022/01/29 10:25:54;;;;;;;6.63;3.07;;;3.10;61.60;;;;;;6267884;28;20325;-61
2022/01/29 10:28:56;;;;;;;6.63;2.97;;;3.20;61.90;;;;;;6240198;28;20200;-61
2022/01/29 10:32:00;;;;;;;4.77;3.20;;;3.20;61.30;;;;;;6248354;28;20233;-61
2022/01/29 10:35:01;;;;;;;3.33;2.30;;;3.30;61.30;;;;;;6272543;28;20193;-61
2022/01/29 10:38:02;;;;;;;4.57;2.50;;;3.30;60.90;;;;;;6237513;28;20190;-61
2022/01/29 10:41:38;;;;;;;4.93;3.30;;;3.30;60.20;;;;;;6239031;28;20212;-61
2022/01/29 10:44:45;;;;;;;4.50;2.77;;;3.40;60.50;;;;;;6177515;28;20341;-61
2022/01/29 10:47:57;;;;;;;5.43;2.43;;;3.40;59.80;;;;;;6215531;28;20179;-61
2022/01/29 10:51:11;;;;;;;7.63;3.30;;;3.50;59.80;;;;;;6234803;28;20287;-61
2022/01/29 10:54:17;;;;;;;4.57;2.57;;;3.50;59.40;;;;;;6235518;28;20189;-61
2022/01/29 10:57:18;;;;;;;6.47;3.57;;;3.60;59.80;;;;;;6255395;28;20182;-61
2022/01/29 11:00:25;;;;;;;5.63;2.80;;;3.60;59.70;;;;;;6227732;28;20193;-61
2022/01/29 11:03:26;;;;;;;4.50;2.57;;;3.80;58.90;;;;;;6253231;28;20185;-62
2022/01/29 11:06:33;;;;;;;4.23;2.53;;;3.90;58.30;;;;;;6260336;28;20216;-60
2022/01/29 11:09:34;;;;;;;5.43;2.70;;;4.00;57.70;;;;;;6249341;28;20195;-59
2022/01/29 11:12:38;;;;;;;5.17;3.43;;;4.30;56.40;;;;;;6228248;28;20193;-60
2022/01/29 11:15:40;;;;;;;6.97;3.53;;;4.70;55.00;;;;;;6237107;28;20289;-60
2022/01/29 11:18:41;;;;;;;9.67;3.80;;;4.70;55.80;;;;;;6245271;28;20201;-59
2022/01/29 11:21:42;;;;;;;7.13;3.40;;;4.80;55.20;;;;;;6259815;28;20273;-60
2022/01/29 11:24:45;;;;;;;8.47;4.00;;;4.90;53.70;;;;;;6243922;28;20214;-60
2022/01/29 11:27:46;;;;;;;7.97;3.40;;;5.20;51.60;;;;;;6234398;28;20198;-60
2022/01/29 11:31:18;;;;;;;5.60;3.40;;;5.60;50.00;;;;;;6261546;28;20242;-59
2022/01/29 11:34:20;;;;;;;4.57;3.03;;;5.70;49.70;;;;;;6285557;28;20244;-59
2022/01/29 11:37:36;;;;;;;4.67;3.30;;;5.70;48.50;;;;;;6244795;28;20231;-60
2022/01/29 11:40:39;;;;;;;6.13;2.80;;;5.90;48.10;;;;;;6246055;28;20190;-59
2022/01/29 11:43:40;;;;;;;3.57;2.27;;;5.90;47.60;;;;;;6243794;28;20237;-59
2022/01/29 11:46:41;;;;;;;2.97;2.17;;;6.00;46.80;;;;;;6243415;28;20209;-59
2022/01/29 11:49:42;;;;;;;2.93;2.13;;;6.10;46.60;;;;;;6244398;28;20186;-59
2022/01/29 11:53:03;;;;;;;2.43;1.90;;;6.50;45.90;;;;;;6275204;28;20260;-59
2022/01/29 11:56:27;;;;;;;5.53;2.20;;;6.70;43.30;;;;;;6250014;28;20220;-59
2022/01/29 11:59:30;;;;;;;4.33;2.13;;;6.80;43.70;;;;;;6259968;28;20221;-60
2022/01/29 12:02:31;;;;;;;2.03;1.50;;;7.10;42.10;;;;;;6243725;28;20190;-59
2022/01/29 12:06:16;;;;;;;3.10;1.63;;;7.10;41.40;;;;;;6260503;28;20212;-59
2022/01/29 12:09:21;;;;;;;3.70;2.43;;;7.30;41.10;;;;;;6258508;28;20197;-59
2022/01/29 12:12:25;;;;;;;2.93;1.70;;;7.70;39.50;;;;;;6252680;28;20189;-59
2022/01/29 12:15:26;;;;;;;5.27;1.70;;;7.80;38.90;;;;;;6259832;28;20284;-59
2022/01/29 12:18:30;;;;;;;2.13;1.67;;;8.20;39.10;;;;;;6248588;28;20189;-59
2022/01/29 12:21:33;;;;;;;6.03;1.90;;;8.30;37.70;;;;;;6234025;28;20322;-59
2022/01/29 12:24:34;;;;;;;3.07;1.27;;;8.70;37.90;;;;;;6236879;28;20202;-59
2022/01/29 12:27:42;;;;;;;2.87;1.30;;;9.10;36.40;;;;;;6230693;28;20240;-58
2022/01/29 12:30:44;;;;;;;2.03;1.53;;;9.40;36.60;;;;;;6247525;28;20178;-59
2022/01/29 12:33:45;;;;;;;3.47;1.73;;;9.70;34.70;;;;;;6249591;28;20337;-58
2022/01/29 12:36:48;;;;;;;1.90;1.40;;;9.90;34.90;;;;;;6232864;28;20276;-58
2022/01/29 12:39:49;;;;;;;3.87;1.83;;;9.70;35.10;;;;;;6268868;28;20201;-59
2022/01/29 12:42:58;;;;;;;3.53;1.83;;;9.80;34.30;;;;;;6261868;28;20245;-59
2022/01/29 12:46:20;;;;;;;3.80;1.77;;;9.80;34.50;;;;;;6277812;28;20218;-60
2022/01/29 12:49:21;;;;;;;2.53;1.90;;;9.50;34.60;;;;;;6234707;28;20190;-59
2022/01/29 12:52:24;;;;;;;5.60;1.90;;;9.70;35.40;;;;;;6241742;28;20186;-59
2022/01/29 12:55:24;;;;;;;2.50;2.00;;;9.80;34.60;;;;;;6272475;28;20218;-59
2022/01/29 12:58:39;;;;;;;3.53;2.10;;;9.70;34.40;;;;;;6232952;28;20189;-60
2022/01/29 13:01:43;;;;;;;2.73;1.93;;;9.90;34.40;;;;;;6280506;28;20190;-59
2022/01/29 13:04:46;;;;;;;2.97;2.13;;;9.70;35.10;;;;;;6231539;28;20272;-59
2022/01/29 13:07:47;;;;;;;3.53;2.10;;;9.70;36.10;;;;;;6255393;28;20724;-60
2022/01/29 13:10:48;;;;;;;5.77;2.10;;;9.80;35.10;;;;;;6242066;28;20196;-60
2022/01/29 13:13:48;;;;;;;3.70;2.10;;;9.50;35.00;;;;;;6240952;28;20191;-60
2022/01/29 13:16:55;;;;;;;4.83;2.13;;;9.80;35.30;;;;;;6231949;28;20191;-60
2022/01/29 13:19:56;;;;;;;3.80;2.87;;;9.60;35.20;;;;;;6240395;28;20212;-60
2022/01/29 13:22:57;;;;;;;3.83;2.20;;;9.50;35.20;;;;;;6233617;28;20251;-59
2022/01/29 13:25:58;;;;;;;9.67;2.43;;;9.50;36.10;;;;;;6262513;28;20225;-59
2022/01/29 13:29:08;;;;;;;4.90;2.57;;;9.50;37.00;;;;;;6241342;28;20192;-54
2022/01/29 13:32:13;;;;;;;5.47;2.27;;;9.50;36.60;;;;;;6258262;28;20264;-55
2022/01/29 13:35:26;;;;;;;4.53;1.77;;;9.50;36.60;;;;;;6238649;28;20193;-52
2022/01/29 13:38:29;;;;;;;4.13;2.07;;;9.40;36.20;;;;;;6242503;28;20218;-55
2022/01/29 13:41:30;;;;;;;3.57;1.93;;;9.30;37.30;;;;;;6251403;28;20191;-56
2022/01/29 13:44:31;;;;;;;4.50;2.30;;;9.60;36.10;;;;;;6233313;28;20354;-56
2022/01/29 13:47:37;;;;;;;4.93;2.50;;;10.10;36.20;;;;;;6237587;28;20201;-55
2022/01/29 13:50:54;;;;;;;10.23;2.90;;;10.60;34.20;;;;;;6249625;28;20212;-56
2022/01/29 13:53:57;;;;;;;2.77;2.00;;;10.80;34.30;;;;;;6223912;28;20265;-53
2022/01/29 13:57:06;;;;;;;2.70;1.80;;;10.50;35.40;;;;;;6262988;28;20188;-56
2022/01/29 14:00:09;;;;;;;6.50;2.20;;;10.30;34.60;;;;;;6249899;28;20190;-56
2022/01/29 14:03:12;;;;;;;5.50;1.80;;;9.80;36.70;;;;;;6233730;28;20199;-56
2022/01/29 14:06:32;;;;;;;3.30;2.03;;;9.50;38.00;;;;;;6262561;28;20201;-56
2022/01/29 14:09:49;;;;;;;5.77;2.07;;;9.30;38.90;;;;;;6262134;28;20240;-54
2022/01/29 14:12:50;;;;;;;3.10;2.07;;;9.20;39.80;;;;;;6240738;28;20297;-55
2022/01/29 14:15:51;;;;;;;3.13;2.40;;;9.30;38.60;;;;;;6242077;28;20198;-57
2022/01/29 14:18:52;;;;;;;4.17;2.20;;;9.30;38.90;;;;;;6234233;28;20201;-55
2022/01/29 14:21:53;;;;;;;5.57;2.10;;;9.30;39.00;;;;;;6229970;28;20224;-56
2022/01/29 14:24:55;;;;;;;4.50;2.47;;;9.50;38.30;;;;;;6221038;28;20275;-56
2022/01/29 14:27:56;;;;;;;5.90;2.93;;;10.00;37.50;;;;;;6253352;28;20190;-56
2022/01/29 14:30:57;;;;;;;4.20;2.97;;;10.30;35.50;;;;;;6266628;28;20185;-55
2022/01/29 14:33:59;;;;;;;3.80;2.67;;;10.20;35.60;;;;;;6239746;28;20201;-57
2022/01/29 14:36:59;;;;;;;5.53;2.60;;;10.10;36.30;;;;;;6240526;28;20209;-56
2022/01/29 14:40:01;;;;;;;12.93;2.80;;;9.90;36.30;;;;;;6249059;28;20217;-56
2022/01/29 14:43:02;;;;;;;5.00;2.53;;;9.80;36.60;;;;;;6262028;28;20242;-57
2022/01/29 14:46:04;;;;;;;4.73;2.90;;;10.00;36.60;;;;;;6234072;28;20233;-56
2022/01/29 14:49:05;;;;;;;7.47;2.67;;;10.00;37.30;;;;;;6218201;28;20360;-57
2022/01/29 14:52:06;;;;;;;5.63;2.63;;;10.20;35.90;;;;;;6232523;28;20242;-58
2022/01/29 14:55:09;;;;;;;2.90;2.30;;;10.10;35.90;;;;;;6232281;28;20194;-58
2022/01/29 14:58:10;;;;;;;5.50;2.70;;;10.30;36.20;;;;;;6248221;28;20226;-59
2022/01/29 15:01:11;;;;;;;3.50;2.10;;;10.30;37.10;;;;;;6249575;28;20194;-57
2022/01/29 15:04:12;;;;;;;4.03;2.20;;;10.30;36.60;;;;;;6238557;28;20194;-58
2022/01/29 15:07:13;;;;;;;3.10;2.40;;;10.30;36.90;;;;;;6272602;28;20186;-57
2022/01/29 15:10:14;;;;;;;4.90;2.27;;;10.40;37.20;;;;;;6243007;28;20217;-58
2022/01/29 15:13:17;;;;;;;3.33;2.30;;;10.30;36.50;;;;;;6252581;28;20194;-58
2022/01/29 15:16:18;;;;;;;5.60;2.60;;;10.20;36.50;;;;;;6238989;28;20724;-58
2022/01/29 15:19:19;;;;;;;4.87;2.47;;;9.80;36.50;;;;;;6273299;28;20200;-58
2022/01/29 15:22:20;;;;;;;2.90;1.93;;;9.70;37.90;;;;;;6240646;28;20257;-58
2022/01/29 15:25:22;;;;;;;3.80;2.90;;;9.50;38.40;;;;;;6236628;28;20309;-57
2022/01/29 15:28:23;;;;;;;4.23;2.17;;;9.60;38.80;;;;;;6239913;28;20284;-57
2022/01/29 15:31:24;;;;;;;3.77;2.20;;;9.30;39.70;;;;;;6222941;28;20189;-56
2022/01/29 15:34:25;;;;;;;2.80;2.33;;;9.10;40.30;;;;;;6273518;28;20193;-57
2022/01/29 15:37:25;;;;;;;4.17;2.47;;;8.90;40.80;;;;;;6223393;28;20181;-57
2022/01/29 15:40:27;;;;;;;4.03;2.63;;;8.70;40.80;;;;;;6240396;28;20195;-56
2022/01/29 15:43:29;;;;;;;3.20;2.27;;;8.40;42.00;;;;;;6255478;28;20240;-55
2022/01/29 15:46:30;;;;;;;4.17;2.30;;;8.10;42.40;;;;;;6248160;28;20206;-56
2022/01/29 15:49:30;;;;;;;2.80;2.03;;;7.70;43.10;;;;;;6260575;28;20255;-57
2022/01/29 15:52:31;;;;;;;3.20;2.30;;;7.30;43.80;;;;;;6257453;28;20183;-57
2022/01/29 15:55:34;;;;;;;4.13;2.63;;;7.20;44.80;;;;;;6256864;28;20339;-58
2022/01/29 15:58:35;;;;;;;3.13;2.50;;;6.80;45.20;;;;;;6232506;28;20186;-59